createdAt,value
2018-08-09T00:02:00.706Z,15.73
2018-08-09T00:04:28.430Z,11.77
2018-08-09T00:06:56.041Z,16.03
2018-08-09T00:09:23.736Z,15.43
2018-08-09T00:11:51.445Z,24.80
2018-08-09T00:14:19.183Z,15.70
2018-08-09T00:16:46.844Z,24.80
2018-08-09T00:19:14.536Z,13.33
2018-08-09T00:21:42.227Z,13.47
2018-08-09T00:24:09.986Z,29.13
2018-08-09T00:26:37.618Z,21.77
2018-08-09T00:29:05.260Z,21.10
2018-08-09T00:31:33.009Z,19.83
2018-08-09T00:34:00.736Z,29.47
2018-08-09T00:36:28.635Z,17.37
2018-08-09T00:38:56.229Z,23.30
2018-08-09T00:41:24.116Z,19.77
2018-08-09T00:43:51.976Z,20.10
2018-08-09T00:46:20.025Z,15.77
2018-08-09T00:48:49.982Z,19.77
2018-08-09T00:51:17.962Z,29.53
2018-08-09T00:53:45.658Z,19.27
2018-08-09T00:56:13.623Z,25.53
2018-08-09T00:58:41.445Z,15.83
2018-08-09T01:01:09.133Z,25.50
2018-08-09T01:03:36.836Z,25.73
2018-08-09T01:06:04.646Z,30.63
2018-08-09T01:08:32.375Z,20.40
2018-08-09T01:11:00.170Z,23.53
2018-08-09T01:13:27.873Z,22.67
2018-08-09T01:15:55.604Z,25.20
2018-08-09T01:18:23.375Z,15.33
2018-08-09T01:20:51.186Z,20.30
2018-08-09T01:23:19.077Z,28.57
2018-08-09T01:25:46.809Z,18.30
2018-08-09T01:28:14.923Z,17.50
2018-08-09T01:30:42.591Z,19.03
2018-08-09T01:33:10.184Z,27.47
2018-08-09T01:35:37.937Z,18.40
2018-08-09T01:38:05.715Z,20.53
2018-08-09T01:40:33.502Z,22.13
2018-08-09T01:43:12.514Z,23.57
2018-08-09T01:45:40.118Z,18.93
2018-08-09T01:48:07.817Z,28.60
2018-08-09T01:50:35.582Z,33.13
2018-08-09T01:53:03.379Z,25.77
2018-08-09T01:55:31.057Z,24.03
2018-08-09T01:57:58.840Z,21.43
2018-08-09T02:00:26.609Z,20.17
2018-08-09T02:02:54.267Z,32.37
2018-08-09T02:05:21.962Z,20.53
2018-08-09T02:07:49.685Z,24.33
2018-08-09T02:10:17.447Z,24.90
2018-08-09T02:12:45.040Z,19.70
2018-08-09T02:15:12.751Z,27.67
2018-08-09T02:17:40.481Z,28.47
2018-08-09T02:20:08.267Z,37.27
2018-08-09T02:22:35.925Z,20.80
2018-08-09T02:25:03.553Z,23.33
2018-08-09T02:27:31.212Z,18.03
2018-08-09T02:29:58.766Z,27.17
2018-08-09T02:32:26.435Z,26.13
2018-08-09T02:34:54.177Z,27.33
2018-08-09T02:37:21.882Z,21.97
2018-08-09T02:39:49.486Z,19.87
2018-08-09T02:42:17.210Z,22.43
2018-08-09T02:44:44.950Z,23.20
2018-08-09T02:47:12.742Z,25.73
2018-08-09T02:49:40.501Z,21.93
2018-08-09T02:52:08.690Z,22.67
2018-08-09T02:54:36.471Z,19.27
2018-08-09T02:57:04.120Z,17.87
2018-08-09T02:59:31.827Z,32.00
2018-08-09T03:01:59.604Z,17.67
2018-08-09T03:04:27.274Z,19.83
2018-08-09T03:06:54.979Z,29.90
2018-08-09T03:09:22.795Z,25.70
2018-08-09T03:11:50.546Z,24.77
2018-08-09T03:14:18.353Z,25.33
2018-08-09T03:16:46.186Z,33.57
2018-08-09T03:19:13.962Z,31.03
2018-08-09T03:21:41.735Z,25.83
2018-08-09T03:24:09.431Z,25.87
2018-08-09T03:26:37.282Z,25.97
2018-08-09T03:29:04.893Z,20.47
2018-08-09T03:31:32.576Z,27.23
2018-08-09T03:34:00.322Z,22.77
2018-08-09T03:36:28.086Z,16.83
2018-08-09T03:38:55.810Z,18.60
2018-08-09T03:41:23.503Z,25.57
2018-08-09T03:43:51.231Z,23.03
2018-08-09T03:46:18.977Z,16.03
2018-08-09T03:48:58.438Z,22.70
2018-08-09T03:51:32.299Z,24.60
2018-08-09T03:54:00.143Z,26.03
2018-08-09T03:56:28.171Z,16.37
2018-08-09T03:58:55.936Z,29.57
2018-08-09T04:01:23.688Z,28.93
2018-08-09T04:03:51.313Z,28.20
2018-08-09T04:06:19.128Z,37.57
2018-08-09T04:08:47.714Z,25.60
2018-08-09T04:11:15.427Z,16.20
2018-08-09T04:13:43.039Z,21.30
2018-08-09T04:16:10.855Z,21.13
2018-08-09T04:18:38.568Z,23.50
2018-08-09T04:21:06.163Z,16.93
2018-08-09T04:23:33.800Z,24.90
2018-08-09T04:26:01.685Z,24.63
2018-08-09T04:28:29.443Z,24.83
2018-08-09T04:30:57.159Z,26.57
2018-08-09T04:33:24.768Z,18.03
2018-08-09T04:35:53.212Z,19.67
2018-08-09T04:38:21.063Z,23.00
2018-08-09T04:40:48.739Z,22.30
2018-08-09T04:43:16.524Z,17.90
2018-08-09T04:45:44.280Z,25.93
2018-08-09T04:48:12.091Z,15.47
2018-08-09T04:50:39.728Z,18.57
2018-08-09T04:53:07.428Z,13.63
2018-08-09T04:55:35.117Z,17.20
2018-08-09T04:58:02.889Z,19.03
2018-08-09T05:00:30.622Z,21.67
2018-08-09T05:02:58.242Z,17.23
2018-08-09T05:05:25.998Z,20.10
2018-08-09T05:07:53.706Z,21.20
2018-08-09T05:10:21.359Z,16.70
2018-08-09T05:12:49.196Z,13.20
2018-08-09T05:15:16.882Z,11.73
2018-08-09T05:17:44.691Z,19.90
2018-08-09T05:20:12.310Z,17.37
2018-08-09T05:22:40.054Z,24.10
2018-08-09T05:25:07.726Z,18.77
2018-08-09T05:27:35.373Z,20.00
2018-08-09T05:30:06.217Z,13.17
2018-08-09T05:32:33.957Z,13.57
2018-08-09T05:35:01.630Z,25.60
2018-08-09T05:37:33.011Z,16.83
2018-08-09T05:40:03.234Z,26.37
2018-08-09T05:42:30.794Z,25.67
2018-08-09T05:44:58.380Z,18.40
2018-08-09T05:47:25.979Z,24.77
2018-08-09T05:49:53.731Z,15.60
2018-08-09T05:52:21.363Z,12.80
2018-08-09T05:54:49.103Z,18.73
2018-08-09T05:57:16.748Z,8.93
2018-08-09T05:59:44.761Z,13.87
2018-08-09T06:02:12.577Z,15.50
2018-08-09T06:04:40.359Z,12.47
2018-08-09T06:07:08.184Z,23.83
2018-08-09T06:09:35.876Z,22.67
2018-08-09T06:12:03.747Z,15.37
2018-08-09T06:14:31.822Z,20.53
2018-08-09T06:16:59.642Z,16.33
2018-08-09T06:19:27.281Z,25.87
2018-08-09T06:21:55.238Z,32.70
2018-08-09T06:24:22.836Z,12.53
2018-08-09T06:26:50.567Z,12.97
2018-08-09T06:29:18.384Z,15.90
2018-08-09T06:31:46.019Z,17.03
2018-08-09T06:34:13.716Z,10.10
2018-08-09T06:36:41.350Z,13.70
2018-08-09T06:39:09.106Z,13.10
2018-08-09T06:41:37.316Z,12.30
2018-08-09T06:44:05.194Z,6.37
2018-08-09T06:46:32.964Z,27.53
2018-08-09T06:49:00.887Z,11.67
2018-08-09T06:51:28.760Z,17.90
2018-08-09T06:53:56.405Z,11.70
2018-08-09T06:56:24.159Z,22.63
2018-08-09T06:58:51.938Z,10.63
2018-08-09T07:01:19.635Z,12.70
2018-08-09T07:03:47.319Z,10.20
2018-08-09T07:06:15.154Z,12.90
2018-08-09T07:08:42.897Z,12.07
2018-08-09T07:11:10.579Z,8.30
2018-08-09T07:13:38.342Z,10.73
2018-08-09T07:16:06.313Z,11.07
2018-08-09T07:18:34.157Z,11.10
2018-08-09T07:21:01.907Z,11.63
2018-08-09T07:23:29.698Z,8.27
2018-08-09T07:25:58.145Z,14.20
2018-08-09T07:28:25.984Z,20.97
2018-08-09T07:30:53.690Z,7.83
2018-08-09T07:33:21.322Z,12.33
2018-08-09T07:35:49.185Z,14.50
2018-08-09T07:38:16.802Z,9.20
2018-08-09T07:40:44.670Z,18.23
2018-08-09T07:43:12.393Z,13.37
2018-08-09T07:45:40.083Z,7.30
2018-08-09T07:48:08.485Z,13.73
2018-08-09T07:50:36.187Z,5.97
2018-08-09T07:53:03.824Z,17.30
2018-08-09T07:55:31.582Z,13.30
2018-08-09T07:57:59.444Z,8.03
2018-08-09T08:00:27.177Z,6.30
2018-08-09T08:02:55.013Z,14.47
2018-08-09T08:05:22.760Z,8.23
2018-08-09T08:07:50.977Z,13.23
2018-08-09T08:10:19.149Z,8.57
2018-08-09T08:12:47.006Z,7.20
2018-08-09T08:15:16.562Z,8.50
2018-08-09T08:17:44.382Z,6.10
2018-08-09T08:20:12.150Z,8.50
2018-08-09T08:22:40.034Z,6.70
2018-08-09T08:25:08.065Z,6.47
2018-08-09T08:27:35.799Z,7.77
2018-08-09T08:30:06.769Z,5.07
2018-08-09T08:32:34.755Z,7.63
2018-08-09T08:35:03.170Z,4.70
2018-08-09T08:37:30.795Z,8.57
2018-08-09T08:39:58.965Z,10.10
2018-08-09T08:42:26.866Z,7.80
2018-08-09T08:44:54.486Z,8.77
2018-08-09T08:47:22.375Z,7.03
2018-08-09T08:49:50.280Z,9.20
2018-08-09T08:52:18.743Z,9.00
2018-08-09T08:54:47.139Z,12.20
2018-08-09T08:57:15.088Z,14.60
2018-08-09T08:59:42.958Z,7.00
2018-08-09T09:02:10.794Z,8.97
2018-08-09T09:04:38.711Z,11.53
2018-08-09T09:07:06.622Z,10.07
2018-08-09T09:09:34.254Z,8.07
2018-08-09T09:12:01.903Z,13.77
2018-08-09T09:14:29.686Z,5.77
2018-08-09T09:16:57.387Z,13.10
2018-08-09T09:19:25.042Z,11.37
2018-08-09T09:21:52.701Z,7.90
2018-08-09T09:24:21.571Z,7.83
2018-08-09T09:26:49.212Z,4.97
2018-08-09T09:29:16.976Z,10.77
2018-08-09T09:31:44.637Z,16.03
2018-08-09T09:34:12.492Z,6.90
2018-08-09T09:36:40.188Z,7.40
2018-08-09T09:39:09.228Z,7.00
2018-08-09T09:41:37.659Z,4.30
2018-08-09T09:44:05.644Z,10.63
2018-08-09T09:46:33.281Z,11.00
2018-08-09T09:49:01.932Z,7.60
2018-08-09T09:51:29.575Z,5.53
2018-08-09T09:53:57.476Z,6.43
2018-08-09T09:56:25.245Z,8.27
2018-08-09T09:58:55.225Z,8.27
2018-08-09T10:01:28.495Z,7.73
2018-08-09T10:03:56.382Z,7.70
2018-08-09T10:06:24.322Z,6.67
2018-08-09T10:08:52.380Z,5.87
2018-08-09T10:11:20.293Z,4.67
2018-08-09T10:13:48.087Z,11.57
2018-08-09T10:16:15.853Z,5.70
2018-08-09T10:18:43.695Z,5.30
2018-08-09T10:21:11.411Z,7.47
2018-08-09T10:23:39.253Z,5.10
2018-08-09T10:26:07.046Z,12.93
2018-08-09T10:28:34.684Z,10.43
2018-08-09T10:31:02.453Z,8.47
2018-08-09T10:33:30.168Z,8.20
2018-08-09T10:35:57.877Z,7.07
2018-08-09T10:38:25.635Z,8.10
2018-08-09T10:40:53.490Z,8.97
2018-08-09T10:43:21.274Z,6.13
2018-08-09T10:45:48.970Z,3.47
2018-08-09T10:48:16.725Z,6.63
2018-08-09T10:50:44.474Z,6.93
2018-08-09T10:53:12.262Z,4.83
2018-08-09T10:55:39.898Z,6.47
2018-08-09T10:58:07.458Z,16.60
2018-08-09T11:00:35.083Z,9.80
2018-08-09T11:03:02.866Z,6.80
2018-08-09T11:05:30.587Z,5.80
2018-08-09T11:07:58.376Z,10.83
2018-08-09T11:10:26.346Z,9.87
2018-08-09T11:12:54.120Z,8.57
2018-08-09T11:15:22.440Z,7.30
2018-08-09T11:17:50.193Z,6.87
2018-08-09T11:20:17.911Z,8.17
2018-08-09T11:22:45.771Z,10.57
2018-08-09T11:25:13.945Z,6.40
2018-08-09T11:27:41.842Z,14.03
2018-08-09T11:30:09.467Z,8.10
2018-08-09T11:32:37.263Z,8.30
2018-08-09T11:35:05.324Z,5.40
2018-08-09T11:37:33.011Z,8.43
2018-08-09T11:40:00.732Z,3.73
2018-08-09T11:42:28.736Z,5.00
2018-08-09T11:44:56.616Z,6.70
2018-08-09T11:47:24.374Z,6.17
2018-08-09T11:49:54.234Z,10.03
2018-08-09T11:52:21.931Z,9.10
2018-08-09T11:54:50.282Z,6.03
2018-08-09T11:57:17.867Z,7.13
2018-08-09T11:59:45.739Z,6.50
2018-08-09T12:02:13.779Z,8.13
2018-08-09T12:04:41.436Z,6.63
2018-08-09T12:07:09.575Z,8.73
2018-08-09T12:09:37.191Z,8.77
2018-08-09T12:12:04.937Z,5.50
2018-08-09T12:14:32.595Z,10.13
2018-08-09T12:17:00.291Z,10.87
2018-08-09T12:19:28.218Z,15.00
2018-08-09T12:21:56.002Z,11.13
2018-08-09T12:24:23.877Z,7.77
2018-08-09T12:26:51.790Z,30.67
2018-08-09T12:29:19.577Z,7.10
2018-08-09T12:31:47.268Z,8.93
2018-08-09T12:34:14.898Z,5.40
2018-08-09T12:36:42.613Z,9.03
2018-08-09T12:39:12.280Z,5.27
2018-08-09T12:41:40.418Z,11.93
2018-08-09T12:44:15.769Z,11.50
2018-08-09T12:46:43.483Z,12.83
2018-08-09T12:49:12.446Z,22.67
2018-08-09T12:51:40.250Z,8.30
2018-08-09T12:54:08.098Z,13.63
2018-08-09T12:56:35.873Z,7.50
2018-08-09T12:59:03.778Z,12.20
2018-08-09T13:01:31.632Z,8.30
2018-08-09T13:03:59.850Z,6.30
2018-08-09T13:06:27.639Z,14.07
2018-08-09T13:08:55.435Z,7.37
2018-08-09T13:11:23.036Z,11.07
2018-08-09T13:13:51.204Z,10.33
2018-08-09T13:16:20.722Z,8.07
2018-08-09T13:18:50.912Z,4.77
2018-08-09T13:21:18.767Z,16.83
2018-08-09T13:23:46.982Z,6.50
2018-08-09T13:26:14.714Z,9.97
2018-08-09T13:28:43.566Z,14.17
2018-08-09T13:31:11.591Z,17.53
2018-08-09T13:33:39.853Z,16.00
2018-08-09T13:36:07.776Z,15.63
2018-08-09T13:38:35.461Z,21.10
2018-08-09T13:41:03.511Z,12.60
2018-08-09T13:43:31.825Z,8.57
2018-08-09T13:45:59.848Z,9.25
2018-08-09T13:48:27.727Z,10.83
2018-08-09T13:50:55.462Z,7.93
2018-08-09T13:53:23.641Z,8.37
2018-08-09T13:55:52.057Z,11.10
2018-08-09T13:58:20.010Z,11.00
2018-08-09T14:00:47.699Z,12.90
2018-08-09T14:03:15.485Z,19.67
2018-08-09T14:05:43.373Z,11.50
2018-08-09T14:08:11.198Z,12.80
2018-08-09T14:10:39.372Z,18.33
2018-08-09T14:13:07.166Z,9.47
2018-08-09T14:15:35.647Z,8.30
2018-08-09T14:18:04.840Z,10.00
2018-08-09T14:20:32.755Z,13.33
2018-08-09T14:23:00.648Z,7.23
2018-08-09T14:25:28.717Z,11.17
2018-08-09T14:27:56.612Z,7.47
2018-08-09T14:30:26.427Z,6.93
2018-08-09T14:32:55.042Z,9.10
2018-08-09T14:35:23.365Z,16.90
2018-08-09T14:37:51.622Z,32.57
2018-08-09T14:40:21.038Z,6.80
2018-08-09T14:42:49.067Z,7.03
2018-08-09T14:45:16.818Z,11.60
2018-08-09T14:47:51.252Z,9.33
2018-08-09T14:50:18.909Z,11.47
2018-08-09T14:52:46.844Z,7.43
2018-08-09T14:55:14.736Z,9.43
2018-08-09T14:57:42.845Z,14.73
2018-08-09T15:00:12.998Z,7.63
2018-08-09T15:02:40.855Z,11.93
2018-08-09T15:05:08.535Z,13.87
2018-08-09T15:07:36.404Z,10.43
2018-08-09T15:10:04.218Z,10.50
2018-08-09T15:12:32.102Z,8.10
2018-08-09T15:15:00.056Z,10.33
2018-08-09T15:17:27.959Z,6.10
2018-08-09T15:19:55.924Z,14.60
2018-08-09T15:22:25.063Z,12.67
2018-08-09T15:24:54.542Z,9.20
2018-08-09T15:27:24.518Z,8.97
2018-08-09T15:29:54.630Z,9.77
2018-08-09T15:32:23.451Z,10.67
2018-08-09T15:34:53.578Z,22.60
2018-08-09T15:37:22.939Z,10.10
2018-08-09T15:39:52.470Z,20.10
2018-08-09T15:42:20.374Z,10.10
2018-08-09T15:44:48.815Z,18.13
2018-08-09T15:47:17.290Z,7.50
2018-08-09T15:49:45.862Z,5.73
2018-08-09T15:52:19.679Z,11.00
2018-08-09T15:54:47.521Z,11.00
2018-08-09T15:57:15.444Z,22.77
2018-08-09T15:59:44.773Z,11.47
2018-08-09T16:02:13.266Z,16.37
2018-08-09T16:04:43.167Z,12.90
2018-08-09T16:07:12.675Z,15.27
2018-08-09T16:09:40.495Z,10.67
2018-08-09T16:12:08.211Z,9.73
2018-08-09T16:14:36.841Z,24.70
2018-08-09T16:17:04.635Z,12.00
2018-08-09T16:19:32.394Z,8.97
2018-08-09T16:24:28.095Z,12.43
2018-08-09T16:26:56.086Z,16.10
2018-08-09T17:16:05.380Z,11.83
2018-08-09T17:18:33.710Z,16.43
2018-08-09T17:21:01.983Z,15.83
2018-08-09T17:23:30.768Z,11.40
2018-08-09T17:25:58.585Z,18.93
2018-08-09T17:28:26.304Z,10.07
2018-08-09T17:30:53.930Z,10.53
2018-08-09T17:33:21.927Z,14.00
2018-08-09T17:35:51.292Z,13.03
2018-08-09T17:38:20.976Z,20.70
2018-08-09T17:40:49.475Z,13.90
2018-08-09T17:43:20.843Z,23.77
2018-08-09T17:45:49.053Z,16.93
2018-08-09T17:48:18.799Z,17.63
2018-08-09T17:50:47.537Z,15.60
2018-08-09T17:53:21.993Z,15.40
2018-08-09T17:55:50.638Z,12.83
2018-08-09T17:58:18.813Z,19.40
2018-08-09T18:00:46.641Z,21.70
2018-08-09T18:03:14.578Z,11.70
2018-08-09T18:05:43.187Z,25.20
2018-08-09T18:08:12.293Z,16.33
2018-08-09T18:10:40.151Z,19.07
2018-08-09T18:13:07.846Z,16.70
2018-08-09T18:15:35.571Z,13.10
2018-08-09T18:18:03.567Z,12.40
2018-08-09T18:20:35.243Z,16.70
2018-08-09T18:23:03.066Z,13.27
2018-08-09T18:25:31.339Z,12.20
2018-08-09T18:27:59.013Z,21.83
2018-08-09T18:30:27.039Z,15.73
2018-08-09T18:32:55.407Z,18.23
2018-08-09T18:35:24.060Z,23.60
2018-08-09T18:37:51.722Z,20.90
2018-08-09T18:40:20.849Z,16.50
2018-08-09T18:42:48.520Z,22.50
2018-08-09T18:45:17.637Z,13.73
2018-08-09T18:47:45.533Z,16.40
2018-08-09T18:50:22.297Z,18.17
2018-08-09T18:52:59.358Z,9.90
2018-08-09T18:55:28.412Z,18.33
2018-08-09T18:57:56.767Z,19.80
2018-08-09T19:00:26.316Z,16.47
2018-08-09T19:02:56.008Z,13.80
2018-08-09T19:05:26.697Z,11.23
2018-08-09T19:08:00.066Z,24.40
2018-08-09T19:10:30.326Z,14.00
2018-08-09T19:12:58.299Z,21.60
2018-08-09T19:15:33.235Z,16.20
2018-08-09T19:18:01.933Z,14.60
2018-08-09T19:20:31.911Z,24.33
2018-08-09T19:23:01.797Z,17.50
2018-08-09T19:25:31.972Z,20.83
2018-08-09T19:28:01.446Z,24.40
2018-08-09T19:30:30.116Z,21.30
2018-08-09T19:32:58.635Z,19.63
2018-08-09T19:35:27.285Z,18.03
2018-08-09T19:37:55.293Z,24.63
2018-08-09T19:40:29.473Z,21.60
2018-08-09T19:42:58.542Z,44.27
2018-08-09T19:45:26.523Z,20.57
2018-08-09T19:47:54.173Z,20.30
2018-08-09T19:50:23.073Z,28.10
2018-08-09T19:52:51.328Z,14.83
2018-08-09T19:55:20.920Z,26.23
2018-08-09T19:57:49.352Z,24.53
2018-08-09T20:00:17.863Z,16.67
2018-08-09T20:02:46.631Z,17.33
2018-08-09T20:05:14.832Z,18.83
2018-08-09T20:07:44.568Z,13.47
2018-08-09T20:10:13.030Z,17.20
2018-08-09T20:12:41.557Z,20.47
2018-08-09T20:15:12.010Z,16.53
2018-08-09T20:17:40.051Z,24.30
2018-08-09T20:20:08.647Z,25.97
2018-08-09T20:22:36.636Z,17.70
2018-08-09T20:25:05.773Z,21.67
2018-08-09T20:27:33.696Z,20.13
2018-08-09T20:30:01.609Z,19.90
2018-08-09T20:32:29.432Z,20.13
2018-08-09T20:34:57.469Z,17.80
2018-08-09T20:37:25.478Z,25.77
2018-08-09T20:39:53.311Z,17.60
2018-08-09T20:42:21.197Z,17.10
2018-08-09T20:44:49.052Z,15.83
2018-08-09T20:47:16.977Z,21.63
2018-08-09T20:49:45.004Z,14.40
2018-08-09T20:52:12.975Z,15.70
2018-08-09T20:54:40.899Z,14.53
2018-08-09T20:57:08.727Z,13.13
2018-08-09T20:59:36.564Z,28.80
2018-08-09T21:02:04.980Z,17.13
2018-08-09T21:04:33.050Z,18.73
2018-08-09T21:07:00.847Z,28.00
2018-08-09T21:09:28.575Z,22.33
2018-08-09T21:11:56.360Z,26.23
2018-08-09T21:14:24.026Z,23.07
2018-08-09T21:16:51.846Z,17.73
2018-08-09T21:19:20.431Z,26.43
2018-08-09T21:21:48.802Z,29.30
2018-08-09T21:24:16.456Z,18.40
2018-08-09T21:26:44.494Z,28.57
2018-08-09T21:29:12.159Z,22.50
2018-08-09T21:31:39.891Z,24.90
2018-08-09T21:34:07.934Z,30.50
2018-08-09T21:36:35.848Z,24.53
2018-08-09T21:39:05.622Z,22.60
2018-08-09T21:41:33.433Z,22.53
2018-08-09T21:44:01.117Z,27.63
2018-08-09T21:46:28.720Z,33.67
2018-08-09T21:48:56.539Z,21.33
2018-08-09T21:51:24.440Z,18.40
2018-08-09T21:53:52.278Z,19.83
2018-08-09T21:56:20.050Z,30.33
2018-08-09T21:58:47.805Z,21.47
2018-08-09T22:01:15.730Z,19.00
2018-08-09T22:03:43.751Z,23.97
2018-08-09T22:06:17.365Z,20.77
2018-08-09T22:08:50.646Z,18.03
2018-08-09T22:11:23.950Z,16.93
2018-08-09T22:13:57.605Z,16.50
2018-08-09T22:16:31.312Z,20.13
2018-08-09T22:19:04.871Z,14.10
2018-08-09T22:21:38.173Z,13.40
2018-08-09T22:24:05.806Z,11.53
2018-08-09T22:26:33.869Z,11.37
2018-08-09T22:29:01.619Z,20.70
2018-08-09T22:31:29.657Z,13.83
2018-08-09T22:33:57.561Z,16.87
2018-08-09T22:36:26.627Z,12.70
2018-08-09T22:38:56.341Z,13.40
2018-08-09T22:41:24.484Z,13.00
2018-08-09T22:43:52.513Z,14.90
2018-08-09T22:46:20.558Z,16.97
2018-08-09T22:48:48.733Z,15.00
2018-08-09T22:51:16.853Z,11.70
2018-08-09T22:53:44.647Z,16.17
2018-08-09T22:56:12.874Z,14.87
2018-08-09T22:58:41.133Z,13.53
2018-08-09T23:01:09.317Z,16.17
2018-08-09T23:03:46.113Z,12.97
2018-08-09T23:06:15.359Z,21.30
2018-08-09T23:08:43.046Z,13.73
2018-08-09T23:11:10.675Z,21.10
2018-08-09T23:13:38.301Z,14.67
2018-08-09T23:16:05.964Z,18.70
2018-08-09T23:18:33.791Z,20.30
2018-08-09T23:21:01.500Z,19.10
2018-08-09T23:23:29.322Z,15.97
2018-08-09T23:25:57.070Z,21.30
2018-08-09T23:28:25.494Z,17.43
2018-08-09T23:30:53.233Z,19.70
2018-08-09T23:33:23.762Z,21.43
2018-08-09T23:35:51.622Z,16.20
2018-08-09T23:38:19.347Z,20.73
2018-08-09T23:40:47.054Z,18.73
2018-08-09T23:43:14.874Z,22.03
2018-08-09T23:45:42.676Z,20.50
2018-08-09T23:48:10.237Z,18.70
2018-08-09T23:50:38.103Z,28.70
2018-08-09T23:53:06.060Z,22.90
2018-08-09T23:55:33.846Z,17.57
2018-08-09T23:58:01.733Z,19.83
